Time;durP1;ratioP1;P1;durP2;ratioP2;P2;SDS_P1;SDS_P2;PMS_P1;PMS_P2;Temp;Humidity;BMP_temperature;BMP_pressure;BME280_temperature;BME280_humidity;BME280_pressure;Samples;Min_cycle;Max_cycle;Signal;HPM_P1;HPM_P2
2020/12/09 00:02:12;;;;;;;3.23;2.10;;;2.30;98.00;;;;;;5092117;28;20821;-61
2020/12/09 00:04:39;;;;;;;2.90;2.43;;;2.40;98.00;;;;;;5091147;28;20491;-60
2020/12/09 00:07:06;;;;;;;4.70;2.40;;;2.30;98.00;;;;;;5091036;28;20465;-61
2020/12/09 00:09:33;;;;;;;1.93;1.30;;;2.20;98.00;;;;;;5091848;28;20456;-61
2020/12/09 00:12:00;;;;;;;3.93;1.67;;;2.30;98.00;;;;;;5089785;28;20875;-61
2020/12/09 00:14:27;;;;;;;1.43;1.37;;;2.30;98.00;;;;;;5091763;28;20514;-62
2020/12/09 00:16:54;;;;;;;1.47;1.37;;;2.30;98.00;;;;;;5089636;28;20879;-61
2020/12/09 00:19:21;;;;;;;4.53;3.10;;;2.40;98.00;;;;;;5091661;28;20455;-60
2020/12/09 00:21:48;;;;;;;1.20;1.20;;;2.40;98.00;;;;;;5089605;28;20455;-60
2020/12/09 00:24:14;;;;;;;1.40;1.37;;;2.40;98.00;;;;;;5091570;28;21062;-62
2020/12/09 00:26:41;;;;;;;2.37;1.50;;;2.40;98.00;;;;;;5089829;28;20455;-61
2020/12/09 00:29:07;;;;;;;1.67;1.40;;;2.40;98.00;;;;;;5090610;28;20500;-61
2020/12/09 00:31:34;;;;;;;2.47;2.10;;;2.50;98.00;;;;;;5089876;28;20454;-61
2020/12/09 00:34:01;;;;;;;1.20;1.20;;;2.50;98.00;;;;;;5091635;28;20451;-61
2020/12/09 00:36:29;;;;;;;1.60;1.27;;;2.50;98.00;;;;;;5089804;28;20446;-62
2020/12/09 00:38:57;;;;;;;1.30;1.20;;;2.50;98.00;;;;;;5091409;28;20488;-61
2020/12/09 00:41:27;;;;;;;2.57;2.40;;;2.70;98.00;;;;;;5089379;28;20494;-61
2020/12/09 00:43:53;;;;;;;1.33;1.20;;;2.80;98.00;;;;;;5091447;28;20488;-61
2020/12/09 00:46:21;;;;;;;1.20;1.00;;;2.90;98.00;;;;;;5089670;28;20518;-60
2020/12/09 00:48:50;;;;;;;2.07;1.63;;;2.90;98.00;;;;;;5091428;28;21137;-60
2020/12/09 00:51:19;;;;;;;1.50;1.33;;;2.80;98.00;;;;;;5089342;28;20516;-61
2020/12/09 00:53:47;;;;;;;2.17;1.80;;;2.80;98.00;;;;;;5091303;28;20450;-62
2020/12/09 00:56:14;;;;;;;2.37;1.50;;;2.70;98.00;;;;;;5089663;28;20988;-61
2020/12/09 00:58:40;;;;;;;1.97;1.30;;;2.60;98.00;;;;;;5091233;28;20451;-61
2020/12/09 01:01:09;;;;;;;1.20;1.10;;;2.50;98.00;;;;;;5089293;28;20489;-61
2020/12/09 01:03:36;;;;;;;2.33;1.80;;;2.50;98.00;;;;;;5091126;28;20511;-61
2020/12/09 01:06:04;;;;;;;2.80;1.77;;;2.60;98.00;;;;;;5089085;28;20474;-60
2020/12/09 01:08:31;;;;;;;1.40;1.30;;;2.60;98.00;;;;;;5091149;28;20451;-60
2020/12/09 01:10:58;;;;;;;1.20;1.00;;;2.40;98.00;;;;;;5089042;28;20447;-61
2020/12/09 01:13:25;;;;;;;2.03;1.93;;;2.30;98.00;;;;;;5091140;28;20450;-60
2020/12/09 01:15:51;;;;;;;1.20;1.13;;;2.10;98.00;;;;;;5088993;28;20453;-61
2020/12/09 01:18:18;;;;;;;2.30;1.80;;;2.20;98.00;;;;;;5091472;28;20455;-61
2020/12/09 01:20:45;;;;;;;1.30;1.20;;;2.10;98.00;;;;;;5089472;27;20821;-60
2020/12/09 01:23:11;;;;;;;2.30;1.67;;;2.20;98.00;;;;;;5091260;28;20945;-61
2020/12/09 01:25:38;;;;;;;2.13;1.73;;;2.30;98.00;;;;;;5089336;28;20900;-61
2020/12/09 01:28:14;;;;;;;2.33;2.13;;;2.20;98.00;;;;;;5091349;28;20459;-62
2020/12/09 01:30:43;;;;;;;4.70;3.00;;;2.20;98.00;;;;;;5089562;28;20455;-62
2020/12/09 01:33:13;;;;;;;1.30;1.20;;;2.30;98.00;;;;;;5091130;28;20455;-60
2020/12/09 01:35:40;;;;;;;1.50;1.20;;;2.30;98.00;;;;;;5090088;28;20455;-62
2020/12/09 01:38:06;;;;;;;1.20;1.10;;;2.40;98.00;;;;;;5090992;28;20530;-61
2020/12/09 01:40:33;;;;;;;1.20;1.03;;;2.50;98.00;;;;;;5091969;28;20459;-61
2020/12/09 01:42:59;;;;;;;1.30;1.20;;;2.50;98.00;;;;;;5092774;28;20507;-60
2020/12/09 01:45:28;;;;;;;1.83;1.53;;;2.50;98.00;;;;;;5094580;28;20532;-61
2020/12/09 01:47:55;;;;;;;1.70;1.30;;;2.60;98.00;;;;;;5091397;28;20475;-61
2020/12/09 01:50:22;;;;;;;1.47;1.30;;;2.70;98.00;;;;;;5094565;28;20612;-61
2020/12/09 01:52:49;;;;;;;1.33;1.20;;;2.70;98.00;;;;;;5092440;28;20455;-61
2020/12/09 01:55:16;;;;;;;1.43;1.37;;;2.60;98.00;;;;;;5094424;28;20455;-61
2020/12/09 01:57:42;;;;;;;1.60;1.37;;;2.60;98.00;;;;;;5092646;28;20514;-61
2020/12/09 02:00:08;;;;;;;2.10;1.97;;;2.70;98.00;;;;;;5094108;28;20495;-61
2020/12/09 02:02:36;;;;;;;1.40;1.30;;;2.50;98.00;;;;;;5092555;28;20864;-61
2020/12/09 02:05:03;;;;;;;1.37;1.37;;;2.40;98.00;;;;;;5094039;28;20482;-61
2020/12/09 02:07:30;;;;;;;1.40;1.27;;;2.30;98.00;;;;;;5092208;28;20504;-62
2020/12/09 02:09:58;;;;;;;1.40;1.20;;;2.20;98.00;;;;;;5093815;28;20917;-61
2020/12/09 02:12:24;;;;;;;1.40;1.10;;;2.10;98.00;;;;;;5092327;28;20507;-61
2020/12/09 02:14:51;;;;;;;1.57;1.53;;;2.10;98.00;;;;;;5094040;28;20832;-61
2020/12/09 02:17:17;;;;;;;1.80;1.50;;;2.20;98.00;;;;;;5092119;28;20512;-61
2020/12/09 02:19:48;;;;;;;2.70;2.40;;;2.10;98.00;;;;;;5093647;28;20514;-61
2020/12/09 02:22:15;;;;;;;1.20;1.10;;;2.00;98.00;;;;;;5092151;28;20512;-61
2020/12/09 02:24:42;;;;;;;1.67;1.57;;;2.10;98.00;;;;;;5093530;28;20550;-61
2020/12/09 02:27:10;;;;;;;1.20;1.10;;;2.10;98.00;;;;;;5092023;28;20506;-61
2020/12/09 02:29:38;;;;;;;1.40;1.20;;;2.20;98.00;;;;;;5093521;28;20546;-61
2020/12/09 02:32:04;;;;;;;1.20;1.17;;;2.30;98.00;;;;;;5090388;28;20516;-60
2020/12/09 02:34:31;;;;;;;1.30;1.10;;;2.40;98.00;;;;;;5093535;28;20463;-61
2020/12/09 02:36:57;;;;;;;2.13;1.20;;;2.40;98.00;;;;;;5091351;28;20521;-62
2020/12/09 02:39:34;;;;;;;1.93;1.83;;;2.30;98.00;;;;;;5093146;28;21002;-61
2020/12/09 02:42:01;;;;;;;1.33;1.30;;;2.30;98.00;;;;;;5090018;28;20824;-61
2020/12/09 02:44:44;;;;;;;1.30;1.20;;;2.40;98.00;;;;;;5093541;28;20482;-61
2020/12/09 02:47:10;;;;;;;1.20;1.20;;;2.30;98.00;;;;;;5090637;28;20458;-61
2020/12/09 02:49:37;;;;;;;1.93;1.47;;;2.40;98.00;;;;;;5093549;28;20460;-60
2020/12/09 02:52:04;;;;;;;1.13;1.00;;;2.40;98.00;;;;;;5090674;28;20502;-61
2020/12/09 02:54:33;;;;;;;1.20;1.10;;;2.50;98.00;;;;;;5093532;28;20531;-61
2020/12/09 02:56:59;;;;;;;2.33;1.43;;;2.50;98.00;;;;;;5091241;28;20514;-61
2020/12/09 02:59:31;;;;;;;1.10;1.00;;;2.60;98.00;;;;;;5093166;28;20535;-60
2020/12/09 03:01:57;;;;;;;4.10;2.07;;;2.80;98.00;;;;;;5091443;28;21090;-61
2020/12/09 03:04:24;;;;;;;1.47;1.43;;;2.80;98.00;;;;;;5093006;28;20962;-61
2020/12/09 03:06:50;;;;;;;2.50;1.57;;;2.90;98.00;;;;;;5091384;28;20525;-61
2020/12/09 03:09:17;;;;;;;1.30;1.30;;;3.00;98.00;;;;;;5093226;28;20442;-61
2020/12/09 03:11:45;;;;;;;1.20;1.00;;;2.80;98.00;;;;;;5092450;28;20459;-61
2020/12/09 03:14:11;;;;;;;1.30;1.10;;;2.80;98.00;;;;;;5091565;28;20852;-61
2020/12/09 03:16:38;;;;;;;1.20;1.10;;;2.70;98.00;;;;;;5092853;28;20455;-61
2020/12/09 03:19:04;;;;;;;2.93;1.53;;;2.60;98.00;;;;;;5090931;28;20460;-61
2020/12/09 03:21:32;;;;;;;2.07;1.90;;;2.60;98.00;;;;;;5092898;28;20865;-60
2020/12/09 03:23:58;;;;;;;1.20;1.10;;;2.60;98.00;;;;;;5090334;28;21018;-60
2020/12/09 03:26:26;;;;;;;1.47;1.37;;;2.50;98.00;;;;;;5092491;28;20458;-60
2020/12/09 03:28:54;;;;;;;1.70;1.53;;;2.30;98.00;;;;;;5090694;28;20487;-61
2020/12/09 03:31:21;;;;;;;3.10;2.07;;;2.10;98.00;;;;;;5092339;28;20455;-61
2020/12/09 03:33:48;;;;;;;1.10;1.00;;;2.00;98.00;;;;;;5090564;28;20511;-61
2020/12/09 03:36:14;;;;;;;1.30;1.17;;;1.90;98.00;;;;;;5091417;28;20454;-61
2020/12/09 03:38:41;;;;;;;1.37;1.30;;;1.90;98.00;;;;;;5089887;28;20867;-61
2020/12/09 03:41:08;;;;;;;1.30;1.20;;;2.00;98.00;;;;;;5092238;28;20526;-60
2020/12/09 03:43:34;;;;;;;1.20;1.20;;;2.10;98.00;;;;;;5090154;28;20516;-60
2020/12/09 03:46:02;;;;;;;1.20;1.10;;;2.10;98.00;;;;;;5092160;28;20536;-61
2020/12/09 03:48:29;;;;;;;2.60;1.63;;;2.20;98.00;;;;;;5090396;28;20459;-61
2020/12/09 03:50:56;;;;;;;1.90;1.80;;;2.30;98.00;;;;;;5091993;28;20446;-61
2020/12/09 03:53:22;;;;;;;1.30;1.30;;;2.60;98.00;;;;;;5090434;28;20529;-61
2020/12/09 03:55:49;;;;;;;2.90;1.43;;;2.70;98.00;;;;;;5091914;28;20448;-60
2020/12/09 03:58:16;;;;;;;1.30;1.20;;;2.80;98.00;;;;;;5090470;28;20487;-61
2020/12/09 04:00:43;;;;;;;1.20;1.07;;;2.70;98.00;;;;;;5091835;28;20456;-61
2020/12/09 04:03:10;;;;;;;1.90;1.20;;;2.70;98.00;;;;;;5090147;28;20451;-60
2020/12/09 04:05:36;;;;;;;1.70;1.10;;;2.60;98.00;;;;;;5091801;28;20480;-61
2020/12/09 04:08:03;;;;;;;3.47;2.40;;;2.50;98.00;;;;;;5090022;28;20501;-61
2020/12/09 04:10:29;;;;;;;1.90;1.43;;;2.50;98.00;;;;;;5091738;28;20451;-61
2020/12/09 04:12:56;;;;;;;6.90;2.70;;;2.50;98.00;;;;;;5089680;28;20459;-60
2020/12/09 04:15:23;;;;;;;1.60;1.57;;;2.50;98.00;;;;;;5091192;28;20451;-61
2020/12/09 04:17:49;;;;;;;5.13;1.87;;;2.50;98.00;;;;;;5089408;28;20537;-61
2020/12/09 04:20:17;;;;;;;1.10;1.00;;;2.50;98.00;;;;;;5091365;28;20508;-60
2020/12/09 04:22:44;;;;;;;2.43;1.63;;;2.50;98.00;;;;;;5089743;28;20458;-61
2020/12/09 04:25:12;;;;;;;1.20;1.10;;;2.40;98.00;;;;;;5091640;28;20541;-61
2020/12/09 04:27:41;;;;;;;1.20;1.10;;;2.50;98.00;;;;;;5089701;28;20464;-62
2020/12/09 04:30:10;;;;;;;1.57;1.30;;;2.40;98.00;;;;;;5091877;28;20481;-61
2020/12/09 04:32:38;;;;;;;1.43;1.27;;;2.40;98.00;;;;;;5091770;28;20487;-61
2020/12/09 04:35:07;;;;;;;2.33;2.13;;;2.40;98.00;;;;;;5090065;28;20456;-61
2020/12/09 04:37:34;;;;;;;1.30;1.30;;;2.50;98.00;;;;;;5092051;28;20508;-61
2020/12/09 04:40:05;;;;;;;1.10;1.10;;;2.40;98.00;;;;;;5089483;28;20512;-61
2020/12/09 04:42:32;;;;;;;1.40;1.27;;;2.40;98.00;;;;;;5091631;28;20519;-61
2020/12/09 04:44:59;;;;;;;7.60;1.33;;;2.30;98.00;;;;;;5089885;28;20519;-62
2020/12/09 04:47:28;;;;;;;2.63;1.60;;;2.20;98.00;;;;;;5091558;28;20508;-61
2020/12/09 04:50:05;;;;;;;1.20;1.10;;;2.20;98.00;;;;;;5088746;28;20452;-61
2020/12/09 04:52:46;;;;;;;2.77;1.63;;;2.20;98.00;;;;;;5091490;28;20451;-60
2020/12/09 04:55:16;;;;;;;1.87;1.43;;;2.40;98.00;;;;;;5089514;28;20504;-60
2020/12/09 04:58:05;;;;;;;1.40;1.30;;;2.40;98.00;;;;;;5091458;28;20465;-61
2020/12/09 05:00:39;;;;;;;1.20;1.10;;;2.50;98.00;;;;;;5091030;28;20807;-62
2020/12/09 05:03:14;;;;;;;1.13;1.00;;;2.40;98.00;;;;;;5089736;28;20462;-62
2020/12/09 05:05:40;;;;;;;1.10;1.00;;;2.40;98.00;;;;;;5091124;28;20544;-61
2020/12/09 05:08:13;;;;;;;1.10;1.00;;;2.50;98.00;;;;;;5089800;28;20458;-62
2020/12/09 05:10:48;;;;;;;2.43;1.90;;;2.50;98.00;;;;;;5091355;28;20467;-61
2020/12/09 05:13:24;;;;;;;2.80;1.97;;;2.60;98.00;;;;;;5088422;28;20507;-61
2020/12/09 05:15:59;;;;;;;1.47;1.20;;;2.50;98.00;;;;;;5092728;28;20844;-61
2020/12/09 05:18:37;;;;;;;1.50;1.10;;;2.60;98.00;;;;;;5093574;28;20882;-61
2020/12/09 05:21:09;;;;;;;2.80;1.97;;;2.60;98.00;;;;;;5094991;28;20461;-60
2020/12/09 05:23:43;;;;;;;1.17;1.10;;;2.60;98.00;;;;;;5093305;28;20511;-61
2020/12/09 05:26:17;;;;;;;1.40;1.30;;;2.50;98.00;;;;;;5094903;28;20996;-61
2020/12/09 05:28:43;;;;;;;1.10;1.00;;;2.50;98.00;;;;;;5092319;28;20516;-61
2020/12/09 05:31:24;;;;;;;1.30;1.30;;;2.60;98.00;;;;;;5094882;28;20458;-60
2020/12/09 05:33:53;;;;;;;1.47;1.33;;;2.50;98.00;;;;;;5093247;28;20508;-62
2020/12/09 05:36:22;;;;;;;1.10;0.90;;;2.60;98.00;;;;;;5094779;28;20596;-60
2020/12/09 05:39:04;;;;;;;1.30;1.20;;;2.50;98.00;;;;;;5093113;28;20455;-61
2020/12/09 05:41:32;;;;;;;2.90;1.57;;;2.50;98.00;;;;;;5094428;28;20499;-60
2020/12/09 05:44:00;;;;;;;1.10;1.10;;;2.60;98.00;;;;;;5092722;28;20881;-60
2020/12/09 05:46:27;;;;;;;1.20;1.20;;;2.50;98.00;;;;;;5094879;28;20465;-61
2020/12/09 05:48:54;;;;;;;1.50;1.20;;;2.50;98.00;;;;;;5093043;28;20454;-61
2020/12/09 05:51:22;;;;;;;1.10;1.10;;;2.50;98.00;;;;;;5094444;28;20454;-62
2020/12/09 05:53:49;;;;;;;1.40;1.20;;;2.50;98.00;;;;;;5092796;28;20513;-61
2020/12/09 05:56:17;;;;;;;1.17;1.10;;;2.50;98.00;;;;;;5094370;28;20793;-62
2020/12/09 05:58:44;;;;;;;2.33;1.77;;;2.50;98.00;;;;;;5094081;28;20511;-62
2020/12/09 06:01:15;;;;;;;2.70;1.43;;;2.50;98.00;;;;;;5092497;28;20459;-61
2020/12/09 06:03:44;;;;;;;1.20;1.10;;;2.40;98.00;;;;;;5092850;28;20458;-61
2020/12/09 06:06:20;;;;;;;1.10;0.90;;;2.50;98.00;;;;;;5092382;28;20486;-61
2020/12/09 06:08:49;;;;;;;1.20;1.07;;;2.50;98.00;;;;;;5094057;28;20515;-62
2020/12/09 06:11:18;;;;;;;5.07;1.27;;;2.40;98.00;;;;;;5092020;28;20458;-61
2020/12/09 06:13:45;;;;;;;1.10;1.00;;;2.30;98.00;;;;;;5093664;28;20782;-61
2020/12/09 06:16:13;;;;;;;1.20;1.10;;;2.30;98.00;;;;;;5092128;28;20510;-61
2020/12/09 06:18:44;;;;;;;1.10;1.10;;;2.20;98.00;;;;;;5093763;28;20495;-61
2020/12/09 06:21:12;;;;;;;1.30;1.10;;;2.10;98.00;;;;;;5091930;28;20511;-61
2020/12/09 06:23:38;;;;;;;1.20;1.10;;;2.00;98.00;;;;;;5093703;28;20468;-60
2020/12/09 06:26:07;;;;;;;1.10;1.10;;;1.90;98.00;;;;;;5092058;28;20483;-61
2020/12/09 06:28:35;;;;;;;1.40;1.40;;;1.90;98.00;;;;;;5092813;28;20553;-61
2020/12/09 06:31:20;;;;;;;1.20;1.10;;;1.90;98.00;;;;;;5091891;28;20508;-61
2020/12/09 06:33:48;;;;;;;1.10;1.00;;;1.90;98.00;;;;;;5093707;28;20934;-61
2020/12/09 06:36:27;;;;;;;1.63;1.30;;;1.90;98.00;;;;;;5092294;28;20471;-61
2020/12/09 06:39:14;;;;;;;1.20;1.10;;;1.90;98.00;;;;;;5093760;28;20508;-61
2020/12/09 06:42:01;;;;;;;1.30;1.20;;;2.00;98.00;;;;;;5091839;28;20808;-61
2020/12/09 06:44:29;;;;;;;1.10;1.00;;;2.00;98.00;;;;;;5092483;28;20491;-62
2020/12/09 06:46:59;;;;;;;1.30;1.30;;;2.00;98.00;;;;;;5093162;28;20455;-61
2020/12/09 06:49:47;;;;;;;1.30;1.27;;;2.10;98.00;;;;;;5093492;28;20442;-61
2020/12/09 06:52:31;;;;;;;1.10;1.00;;;2.10;98.00;;;;;;5088508;28;21028;-60
2020/12/09 06:54:58;;;;;;;1.10;1.00;;;2.20;98.00;;;;;;5091111;28;20512;-61
2020/12/09 06:57:29;;;;;;;1.20;1.10;;;2.30;98.00;;;;;;5093119;28;20470;-61
2020/12/09 07:00:21;;;;;;;1.37;1.33;;;2.30;98.00;;;;;;5091400;28;20456;-62
2020/12/09 07:02:55;;;;;;;1.20;1.10;;;2.20;98.00;;;;;;5093088;28;20857;-61
2020/12/09 07:05:27;;;;;;;1.10;1.00;;;2.10;98.00;;;;;;5089548;28;20559;-61
2020/12/09 07:08:01;;;;;;;1.57;1.30;;;2.10;98.00;;;;;;5092768;28;20487;-62
2020/12/09 07:10:29;;;;;;;3.63;1.60;;;2.10;98.00;;;;;;5091030;28;20508;-62
2020/12/09 07:13:08;;;;;;;1.10;1.10;;;2.20;98.00;;;;;;5092672;28;20450;-61
2020/12/09 07:15:35;;;;;;;1.37;1.33;;;2.20;98.00;;;;;;5090798;28;20455;-61
2020/12/09 07:18:02;;;;;;;1.50;1.40;;;2.30;98.00;;;;;;5092813;28;20526;-61
2020/12/09 07:20:29;;;;;;;1.40;1.37;;;2.30;98.00;;;;;;5090421;28;20925;-61
2020/12/09 07:22:55;;;;;;;1.10;0.90;;;2.40;98.00;;;;;;5091337;28;20482;-61
2020/12/09 07:25:23;;;;;;;1.10;1.00;;;2.50;98.00;;;;;;5090883;28;20895;-61
2020/12/09 07:27:51;;;;;;;2.10;1.57;;;2.50;98.00;;;;;;5092352;28;20512;-62
2020/12/09 07:30:19;;;;;;;2.20;2.03;;;2.60;98.00;;;;;;5090678;28;20938;-61
2020/12/09 07:32:47;;;;;;;1.20;1.00;;;2.60;98.00;;;;;;5092167;28;20578;-61
2020/12/09 07:35:15;;;;;;;1.20;1.10;;;2.60;98.00;;;;;;5091130;28;20560;-61
2020/12/09 07:37:45;;;;;;;1.20;1.10;;;2.70;98.00;;;;;;5092125;28;20509;-61
2020/12/09 07:40:22;;;;;;;2.23;2.03;;;2.70;98.00;;;;;;5091964;28;20455;-61
2020/12/09 07:42:59;;;;;;;1.60;1.20;;;2.80;98.00;;;;;;5092135;28;20454;-61
2020/12/09 07:45:27;;;;;;;1.10;1.00;;;2.80;98.00;;;;;;5090201;28;20483;-61
2020/12/09 07:47:59;;;;;;;1.10;1.00;;;2.80;98.00;;;;;;5092043;28;20451;-61
2020/12/09 07:50:26;;;;;;;8.30;2.00;;;2.80;98.00;;;;;;5090024;28;20448;-61
2020/12/09 07:52:53;;;;;;;1.30;1.20;;;2.70;98.00;;;;;;5091931;28;20484;-62
2020/12/09 07:55:20;;;;;;;1.63;1.53;;;2.70;98.00;;;;;;5091989;28;20452;-61
2020/12/09 07:57:46;;;;;;;1.20;1.20;;;2.70;98.00;;;;;;5089801;28;20448;-61
2020/12/09 08:00:14;;;;;;;1.60;1.43;;;2.70;98.00;;;;;;5091963;28;20938;-60
2020/12/09 08:02:44;;;;;;;1.20;1.10;;;2.70;98.00;;;;;;5090113;28;20455;-61
2020/12/09 08:05:17;;;;;;;1.63;1.60;;;2.70;98.00;;;;;;5092371;28;20480;-60
2020/12/09 08:07:48;;;;;;;1.20;1.10;;;2.70;98.00;;;;;;5090419;28;20849;-60
2020/12/09 08:10:16;;;;;;;4.27;2.50;;;2.70;98.00;;;;;;5091670;28;20517;-61
2020/12/09 08:12:43;;;;;;;1.30;1.10;;;3.50;98.00;;;;;;5089926;28;20802;-60
2020/12/09 08:15:10;;;;;;;1.77;1.27;;;5.00;98.00;;;;;;5091975;28;20451;-61
2020/12/09 08:17:37;;;;;;;1.20;1.10;;;6.10;98.00;;;;;;5090061;28;20506;-61
2020/12/09 08:20:06;;;;;;;1.63;1.43;;;7.10;98.00;;;;;;5091600;28;20860;-61
2020/12/09 08:22:37;;;;;;;2.63;2.10;;;7.20;98.00;;;;;;5087867;28;20512;-61
2020/12/09 08:25:07;;;;;;;2.67;2.47;;;6.70;98.00;;;;;;5091005;28;20486;-62
2020/12/09 08:27:44;;;;;;;1.60;1.23;;;6.20;98.00;;;;;;5089604;28;20455;-61
2020/12/09 08:30:19;;;;;;;1.40;1.30;;;5.60;98.00;;;;;;5090866;28;20474;-60
2020/12/09 08:33:04;;;;;;;1.67;1.20;;;5.20;98.00;;;;;;5087768;28;20519;-65
2020/12/09 08:35:46;;;;;;;1.20;1.00;;;4.80;98.00;;;;;;5081373;28;21038;-64
2020/12/09 08:38:27;;;;;;;1.20;1.00;;;4.40;98.00;;;;;;5068179;28;20519;-61
2020/12/09 08:40:55;;;;;;;1.93;1.53;;;4.20;98.00;;;;;;5070627;28;20471;-60
2020/12/09 08:43:23;;;;;;;1.20;1.00;;;4.00;98.00;;;;;;5069811;28;20498;-61
2020/12/09 08:45:49;;;;;;;1.63;1.30;;;4.00;98.00;;;;;;5070215;28;20574;-62
2020/12/09 08:48:18;;;;;;;1.50;1.47;;;3.80;98.00;;;;;;5068767;28;20620;-63
2020/12/09 08:50:46;;;;;;;3.00;1.77;;;3.80;98.00;;;;;;5072041;28;20543;-62
2020/12/09 08:53:14;;;;;;;2.37;1.40;;;3.80;98.00;;;;;;5072828;28;20457;-62
2020/12/09 08:55:42;;;;;;;2.23;1.60;;;3.70;98.00;;;;;;5074473;28;20457;-62
2020/12/09 08:58:09;;;;;;;1.30;1.20;;;3.50;98.00;;;;;;5072805;28;20483;-62
2020/12/09 09:00:37;;;;;;;4.83;1.97;;;3.40;98.00;;;;;;5074703;28;20457;-61
2020/12/09 09:03:04;;;;;;;4.27;2.13;;;3.40;98.00;;;;;;5072482;28;20453;-62
2020/12/09 09:05:31;;;;;;;4.50;2.73;;;3.30;98.00;;;;;;5074376;28;20491;-62
2020/12/09 09:08:00;;;;;;;1.93;1.73;;;3.30;98.00;;;;;;5072408;28;20453;-62
2020/12/09 09:10:27;;;;;;;1.67;1.50;;;3.20;98.00;;;;;;5074213;28;21199;-62
2020/12/09 09:12:53;;;;;;;3.70;2.40;;;3.30;98.00;;;;;;5072526;28;20521;-62
2020/12/09 09:15:20;;;;;;;1.53;1.43;;;3.30;98.00;;;;;;5074342;28;20510;-62
2020/12/09 09:17:46;;;;;;;1.63;1.57;;;3.30;98.00;;;;;;5072525;28;20878;-62
2020/12/09 09:20:13;;;;;;;1.83;1.60;;;3.40;98.00;;;;;;5074202;28;20464;-62
2020/12/09 09:22:39;;;;;;;1.67;1.33;;;3.40;98.00;;;;;;5072656;28;20457;-63
2020/12/09 09:25:07;;;;;;;2.30;2.13;;;3.30;98.00;;;;;;5074160;28;20546;-61
2020/12/09 09:27:33;;;;;;;7.83;4.17;;;3.20;98.00;;;;;;5071352;28;20543;-62
2020/12/09 09:30:00;;;;;;;1.23;1.17;;;3.10;98.00;;;;;;5074591;28;20460;-61
2020/12/09 09:32:27;;;;;;;1.90;1.70;;;3.00;98.00;;;;;;5070840;28;20600;-62
2020/12/09 09:34:54;;;;;;;2.93;1.37;;;3.10;98.00;;;;;;5074420;28;20478;-61
2020/12/09 09:37:22;;;;;;;2.57;1.90;;;3.20;98.00;;;;;;5071054;28;20487;-62
2020/12/09 09:39:50;;;;;;;1.50;1.37;;;3.40;98.00;;;;;;5074075;28;20449;-61
2020/12/09 09:42:18;;;;;;;1.33;1.27;;;3.20;98.00;;;;;;5070619;28;20453;-61
2020/12/09 09:44:49;;;;;;;1.20;1.20;;;3.20;98.00;;;;;;5073805;28;20480;-63
2020/12/09 09:47:16;;;;;;;2.17;1.97;;;3.10;98.00;;;;;;5072075;28;20510;-62
2020/12/09 09:49:43;;;;;;;1.40;1.10;;;2.90;98.00;;;;;;5073612;28;20456;-63
2020/12/09 09:52:10;;;;;;;2.50;1.60;;;3.00;98.00;;;;;;5069993;28;20536;-60
2020/12/09 09:54:36;;;;;;;1.60;1.50;;;3.00;98.00;;;;;;5072500;28;20456;-62
2020/12/09 09:57:03;;;;;;;5.63;1.70;;;3.10;98.00;;;;;;5072824;28;20835;-62
2020/12/09 09:59:31;;;;;;;4.23;2.90;;;3.10;98.00;;;;;;5071690;28;21120;-64
2020/12/09 10:01:58;;;;;;;2.70;2.37;;;3.10;98.00;;;;;;5072547;28;20819;-63
2020/12/09 10:04:24;;;;;;;1.30;1.20;;;3.10;98.00;;;;;;5071451;28;20457;-63
2020/12/09 10:06:51;;;;;;;1.43;1.20;;;3.20;98.00;;;;;;5073073;28;20875;-62
2020/12/09 10:09:20;;;;;;;3.63;2.07;;;3.20;98.00;;;;;;5071535;28;20448;-62
2020/12/09 10:11:47;;;;;;;3.00;1.60;;;3.20;98.00;;;;;;5072692;28;21145;-63
2020/12/09 10:14:14;;;;;;;5.47;3.37;;;3.20;98.00;;;;;;5071712;28;20464;-62
2020/12/09 10:16:44;;;;;;;1.40;1.40;;;3.30;98.00;;;;;;5072621;28;20511;-62
2020/12/09 10:19:11;;;;;;;1.20;1.10;;;3.20;98.00;;;;;;5071254;28;20456;-63
2020/12/09 10:21:37;;;;;;;1.83;1.83;;;3.30;98.00;;;;;;5072045;28;20936;-62
2020/12/09 10:24:05;;;;;;;2.93;2.13;;;3.40;98.00;;;;;;5071350;28;21035;-62
2020/12/09 10:26:33;;;;;;;2.43;1.97;;;3.40;98.00;;;;;;5072224;28;20516;-62
2020/12/09 10:29:01;;;;;;;1.67;1.63;;;3.40;98.00;;;;;;5071086;28;20452;-63
2020/12/09 10:31:35;;;;;;;3.30;2.30;;;3.40;98.00;;;;;;5072208;28;20457;-61
2020/12/09 10:34:03;;;;;;;2.90;2.70;;;3.40;98.00;;;;;;5071008;28;20456;-63
2020/12/09 10:36:29;;;;;;;1.40;1.10;;;3.30;98.00;;;;;;5079274;28;20516;-61
2020/12/09 10:38:56;;;;;;;4.23;1.57;;;3.50;98.00;;;;;;5091181;28;20463;-61
2020/12/09 10:41:25;;;;;;;1.20;1.00;;;3.40;98.00;;;;;;5093734;28;20456;-61
2020/12/09 10:43:53;;;;;;;1.37;1.30;;;3.40;98.00;;;;;;5091397;28;20854;-61
2020/12/09 10:46:21;;;;;;;2.30;1.60;;;3.40;98.00;;;;;;5093178;28;20491;-61
2020/12/09 10:48:48;;;;;;;1.27;1.23;;;3.40;98.00;;;;;;5091323;28;20452;-61
2020/12/09 10:51:17;;;;;;;2.03;1.50;;;3.40;98.00;;;;;;5092237;28;20452;-62
2020/12/09 10:53:43;;;;;;;1.53;1.37;;;3.40;98.00;;;;;;5089163;28;20443;-61
2020/12/09 10:56:10;;;;;;;1.83;1.70;;;3.40;98.00;;;;;;5092201;28;20811;-61
2020/12/09 10:58:37;;;;;;;1.73;1.30;;;3.30;98.00;;;;;;5090626;28;20950;-62
2020/12/09 11:01:04;;;;;;;1.97;1.20;;;3.40;98.00;;;;;;5091963;28;20466;-62
2020/12/09 11:03:31;;;;;;;1.73;1.40;;;3.40;98.00;;;;;;5090895;28;20455;-62
2020/12/09 11:06:01;;;;;;;3.80;3.17;;;3.30;98.00;;;;;;5091912;28;20484;-61
2020/12/09 11:08:28;;;;;;;1.20;1.20;;;3.20;98.00;;;;;;5090868;28;20443;-62
2020/12/09 11:10:55;;;;;;;1.97;1.50;;;3.40;98.00;;;;;;5090514;28;20463;-61
2020/12/09 11:13:21;;;;;;;1.67;1.63;;;3.40;98.00;;;;;;5090857;28;20455;-61
2020/12/09 11:15:51;;;;;;;1.10;1.10;;;3.60;98.00;;;;;;5090483;28;20455;-61
2020/12/09 11:18:18;;;;;;;1.20;1.13;;;3.60;98.00;;;;;;5091891;28;20451;-62
2020/12/09 11:20:44;;;;;;;1.33;1.20;;;3.60;98.00;;;;;;5090325;28;20501;-62
2020/12/09 11:23:12;;;;;;;1.40;1.30;;;3.50;98.00;;;;;;5090116;28;20534;-61
2020/12/09 11:25:41;;;;;;;1.50;1.43;;;3.70;98.00;;;;;;5090288;28;20487;-61
2020/12/09 11:28:07;;;;;;;1.20;1.20;;;3.80;98.00;;;;;;5091884;28;20465;-61
2020/12/09 11:30:34;;;;;;;1.53;1.43;;;3.80;98.00;;;;;;5090724;28;20451;-61
2020/12/09 11:33:00;;;;;;;2.43;2.30;;;3.70;98.00;;;;;;5091342;28;20463;-63
2020/12/09 11:35:27;;;;;;;1.80;1.67;;;3.70;98.00;;;;;;5090232;28;20446;-60
2020/12/09 11:37:55;;;;;;;1.20;1.13;;;3.60;98.00;;;;;;5091078;28;20505;-61
2020/12/09 11:40:26;;;;;;;1.20;1.10;;;3.40;98.00;;;;;;5090277;28;20508;-63
2020/12/09 11:42:55;;;;;;;2.37;2.20;;;3.40;98.00;;;;;;5091182;28;20481;-62
2020/12/09 11:45:21;;;;;;;1.30;1.20;;;3.40;98.00;;;;;;5089844;28;20514;-64
2020/12/09 11:47:48;;;;;;;1.10;1.10;;;3.40;98.00;;;;;;5091072;28;21026;-61
2020/12/09 11:50:14;;;;;;;4.40;1.77;;;3.50;98.00;;;;;;5089828;28;20569;-62
2020/12/09 11:52:41;;;;;;;1.30;1.27;;;3.40;98.00;;;;;;5090698;28;20467;-62
2020/12/09 11:55:07;;;;;;;3.10;1.63;;;3.50;98.00;;;;;;5089590;28;20456;-62
2020/12/09 11:57:34;;;;;;;1.50;1.40;;;3.60;98.00;;;;;;5091023;28;20470;-61
2020/12/09 12:00:01;;;;;;;1.47;1.30;;;3.80;98.00;;;;;;5089541;28;20464;-62
2020/12/09 12:02:28;;;;;;;1.50;1.40;;;3.70;98.00;;;;;;5090665;28;20482;-61
2020/12/09 12:04:56;;;;;;;1.57;1.40;;;3.60;98.00;;;;;;5089247;28;20533;-61
2020/12/09 12:07:22;;;;;;;1.40;1.33;;;3.60;98.00;;;;;;5090833;28;20969;-63
2020/12/09 12:09:50;;;;;;;4.27;2.10;;;3.60;98.00;;;;;;5089321;28;20463;-63
2020/12/09 12:12:16;;;;;;;1.10;1.00;;;3.60;98.00;;;;;;5078739;28;21036;-60
2020/12/09 12:14:44;;;;;;;2.07;1.73;;;4.60;98.00;;;;;;5089333;28;20509;-61
2020/12/09 12:17:11;;;;;;;5.50;1.67;;;4.90;98.00;;;;;;5090536;28;20452;-61
2020/12/09 12:19:38;;;;;;;1.73;1.63;;;4.90;98.00;;;;;;5089555;28;20464;-62
2020/12/09 12:22:06;;;;;;;4.87;1.80;;;4.70;98.00;;;;;;5090507;28;20448;-64
2020/12/09 12:24:34;;;;;;;2.37;1.47;;;4.50;98.00;;;;;;5088913;28;20509;-61
2020/12/09 12:27:01;;;;;;;1.30;1.30;;;4.40;98.00;;;;;;5089823;28;20480;-61
2020/12/09 12:29:28;;;;;;;2.07;1.83;;;4.40;98.00;;;;;;5090277;28;20490;-61
2020/12/09 12:31:54;;;;;;;1.63;1.30;;;4.40;98.00;;;;;;5089378;28;20721;-62
2020/12/09 12:34:21;;;;;;;1.63;1.63;;;4.30;98.00;;;;;;5090685;28;20813;-61
2020/12/09 12:36:48;;;;;;;1.33;1.23;;;4.20;98.00;;;;;;5089026;28;20444;-61
2020/12/09 12:39:15;;;;;;;2.27;2.03;;;3.90;98.00;;;;;;5090222;28;20462;-61
2020/12/09 12:41:44;;;;;;;6.20;2.00;;;3.60;98.00;;;;;;5089234;28;20734;-61
2020/12/09 12:44:11;;;;;;;1.33;1.27;;;3.60;98.00;;;;;;5090630;28;20486;-61
2020/12/09 12:46:37;;;;;;;1.83;1.43;;;3.60;98.00;;;;;;5089104;28;20480;-61
2020/12/09 12:49:04;;;;;;;1.93;1.83;;;3.60;98.00;;;;;;5090320;28;20451;-62
2020/12/09 12:51:32;;;;;;;2.90;1.63;;;3.40;98.00;;;;;;5089573;28;20532;-63
2020/12/09 12:53:58;;;;;;;1.47;1.30;;;3.40;98.00;;;;;;5090032;28;20459;-62
2020/12/09 12:56:25;;;;;;;6.73;2.60;;;3.30;98.00;;;;;;5088917;28;20806;-62
2020/12/09 12:58:51;;;;;;;1.67;1.57;;;3.20;98.00;;;;;;5089988;28;20451;-63
2020/12/09 13:01:18;;;;;;;1.50;1.33;;;3.10;98.00;;;;;;5087465;28;20942;-62
2020/12/09 13:03:44;;;;;;;1.57;1.43;;;3.20;98.00;;;;;;5090123;28;20536;-62
2020/12/09 13:06:13;;;;;;;2.27;1.67;;;3.20;98.00;;;;;;5088671;28;20490;-62